sensor_id;sensor_type;location;lat;lon;timestamp;P1;durP1;ratioP1;P2;durP2;ratioP2
4634;SDS011;2330;48.158;11.816;2024-02-28T00:02:02;18.07;;;16.47;;
4634;SDS011;2330;48.158;11.816;2024-02-28T00:04:29;16.40;;;14.90;;
4634;SDS011;2330;48.158;11.816;2024-02-28T00:06:56;16.90;;;15.40;;
4634;SDS011;2330;48.158;11.816;2024-02-28T00:09:22;17.53;;;15.83;;
4634;SDS011;2330;48.158;11.816;2024-02-28T00:11:50;14.90;;;13.63;;
4634;SDS011;2330;48.158;11.816;2024-02-28T00:14:17;15.90;;;14.60;;
4634;SDS011;2330;48.158;11.816;2024-02-28T00:16:44;14.90;;;13.70;;
4634;SDS011;2330;48.158;11.816;2024-02-28T00:19:12;16.17;;;14.57;;
4634;SDS011;2330;48.158;11.816;2024-02-28T00:21:39;17.30;;;15.60;;
4634;SDS011;2330;48.158;11.816;2024-02-28T00:24:07;16.63;;;15.10;;
4634;SDS011;2330;48.158;11.816;2024-02-28T00:26:35;15.93;;;14.53;;
4634;SDS011;2330;48.158;11.816;2024-02-28T00:29:02;16.23;;;14.80;;
4634;SDS011;2330;48.158;11.816;2024-02-28T00:31:28;18.70;;;15.30;;
4634;SDS011;2330;48.158;11.816;2024-02-28T00:33:55;16.87;;;15.17;;
4634;SDS011;2330;48.158;11.816;2024-02-28T00:36:22;15.60;;;14.30;;
4634;SDS011;2330;48.158;11.816;2024-02-28T00:38:49;18.10;;;16.40;;
4634;SDS011;2330;48.158;11.816;2024-02-28T00:41:16;16.13;;;14.73;;
4634;SDS011;2330;48.158;11.816;2024-02-28T00:43:43;15.80;;;14.10;;
4634;SDS011;2330;48.158;11.816;2024-02-28T00:46:09;16.77;;;15.27;;
4634;SDS011;2330;48.158;11.816;2024-02-28T00:48:38;17.17;;;15.47;;
4634;SDS011;2330;48.158;11.816;2024-02-28T00:51:06;16.73;;;15.20;;
4634;SDS011;2330;48.158;11.816;2024-02-28T00:53:36;17.30;;;15.70;;
4634;SDS011;2330;48.158;11.816;2024-02-28T00:56:03;18.93;;;16.93;;
4634;SDS011;2330;48.158;11.816;2024-02-28T00:58:30;18.40;;;16.70;;
4634;SDS011;2330;48.158;11.816;2024-02-28T01:00:56;20.43;;;18.40;;
4634;SDS011;2330;48.158;11.816;2024-02-28T01:03:24;22.20;;;18.80;;
4634;SDS011;2330;48.158;11.816;2024-02-28T01:05:51;20.07;;;17.80;;
4634;SDS011;2330;48.158;11.816;2024-02-28T01:08:18;19.03;;;17.33;;
4634;SDS011;2330;48.158;11.816;2024-02-28T01:10:45;22.23;;;20.20;;
4634;SDS011;2330;48.158;11.816;2024-02-28T01:13:12;21.57;;;19.47;;
4634;SDS011;2330;48.158;11.816;2024-02-28T01:15:39;20.30;;;18.50;;
4634;SDS011;2330;48.158;11.816;2024-02-28T01:18:10;20.50;;;18.47;;
4634;SDS011;2330;48.158;11.816;2024-02-28T01:20:37;20.13;;;18.17;;
4634;SDS011;2330;48.158;11.816;2024-02-28T01:23:04;24.03;;;21.60;;
4634;SDS011;2330;48.158;11.816;2024-02-28T01:25:31;23.67;;;21.57;;
4634;SDS011;2330;48.158;11.816;2024-02-28T01:27:58;24.37;;;21.90;;
4634;SDS011;2330;48.158;11.816;2024-02-28T01:30:25;24.50;;;22.20;;
4634;SDS011;2330;48.158;11.816;2024-02-28T01:32:52;24.77;;;22.50;;
4634;SDS011;2330;48.158;11.816;2024-02-28T01:35:19;25.40;;;22.90;;
4634;SDS011;2330;48.158;11.816;2024-02-28T01:37:46;25.27;;;22.77;;
4634;SDS011;2330;48.158;11.816;2024-02-28T01:40:13;22.73;;;20.43;;
4634;SDS011;2330;48.158;11.816;2024-02-28T01:42:40;23.50;;;21.10;;
4634;SDS011;2330;48.158;11.816;2024-02-28T01:45:07;24.90;;;22.50;;
4634;SDS011;2330;48.158;11.816;2024-02-28T01:47:39;26.73;;;24.13;;
4634;SDS011;2330;48.158;11.816;2024-02-28T01:50:09;24.13;;;21.83;;
4634;SDS011;2330;48.158;11.816;2024-02-28T01:52:37;26.60;;;24.10;;
4634;SDS011;2330;48.158;11.816;2024-02-28T01:55:05;26.20;;;23.80;;
4634;SDS011;2330;48.158;11.816;2024-02-28T01:57:33;25.73;;;23.33;;
4634;SDS011;2330;48.158;11.816;2024-02-28T02:00:01;25.60;;;23.20;;
4634;SDS011;2330;48.158;11.816;2024-02-28T02:02:28;26.33;;;23.73;;
4634;SDS011;2330;48.158;11.816;2024-02-28T02:04:55;25.57;;;23.07;;
4634;SDS011;2330;48.158;11.816;2024-02-28T02:07:24;22.47;;;20.53;;
4634;SDS011;2330;48.158;11.816;2024-02-28T02:09:52;23.10;;;21.00;;
4634;SDS011;2330;48.158;11.816;2024-02-28T02:12:19;27.53;;;24.93;;
4634;SDS011;2330;48.158;11.816;2024-02-28T02:14:49;24.40;;;22.27;;
4634;SDS011;2330;48.158;11.816;2024-02-28T02:17:16;24.30;;;22.03;;
4634;SDS011;2330;48.158;11.816;2024-02-28T02:19:42;26.67;;;24.17;;
4634;SDS011;2330;48.158;11.816;2024-02-28T02:22:10;25.80;;;23.37;;
4634;SDS011;2330;48.158;11.816;2024-02-28T02:24:40;26.57;;;23.97;;
4634;SDS011;2330;48.158;11.816;2024-02-28T02:27:07;26.93;;;24.33;;
4634;SDS011;2330;48.158;11.816;2024-02-28T02:29:34;26.83;;;24.13;;
4634;SDS011;2330;48.158;11.816;2024-02-28T02:32:00;27.73;;;25.10;;
4634;SDS011;2330;48.158;11.816;2024-02-28T02:34:27;26.50;;;24.17;;
4634;SDS011;2330;48.158;11.816;2024-02-28T02:36:54;26.60;;;24.03;;
4634;SDS011;2330;48.158;11.816;2024-02-28T02:39:21;27.17;;;24.40;;
4634;SDS011;2330;48.158;11.816;2024-02-28T02:41:48;26.83;;;24.40;;
4634;SDS011;2330;48.158;11.816;2024-02-28T02:44:15;27.17;;;24.57;;
4634;SDS011;2330;48.158;11.816;2024-02-28T02:46:42;26.33;;;24.00;;
4634;SDS011;2330;48.158;11.816;2024-02-28T02:49:08;27.70;;;25.10;;
4634;SDS011;2330;48.158;11.816;2024-02-28T02:51:35;28.47;;;25.77;;
4634;SDS011;2330;48.158;11.816;2024-02-28T02:54:02;27.83;;;25.33;;
4634;SDS011;2330;48.158;11.816;2024-02-28T02:56:29;28.57;;;25.77;;
4634;SDS011;2330;48.158;11.816;2024-02-28T02:58:55;26.77;;;24.30;;
4634;SDS011;2330;48.158;11.816;2024-02-28T03:01:22;29.50;;;26.70;;
4634;SDS011;2330;48.158;11.816;2024-02-28T03:03:49;28.33;;;25.77;;
4634;SDS011;2330;48.158;11.816;2024-02-28T03:06:16;28.97;;;25.90;;
4634;SDS011;2330;48.158;11.816;2024-02-28T03:08:43;30.63;;;27.43;;
4634;SDS011;2330;48.158;11.816;2024-02-28T03:11:10;30.10;;;27.20;;
4634;SDS011;2330;48.158;11.816;2024-02-28T03:13:37;29.10;;;26.30;;
4634;SDS011;2330;48.158;11.816;2024-02-28T03:16:04;29.40;;;26.60;;
4634;SDS011;2330;48.158;11.816;2024-02-28T03:18:31;29.23;;;26.53;;
4634;SDS011;2330;48.158;11.816;2024-02-28T03:20:58;30.37;;;27.30;;
4634;SDS011;2330;48.158;11.816;2024-02-28T03:23:25;28.97;;;26.10;;
4634;SDS011;2330;48.158;11.816;2024-02-28T03:25:52;29.53;;;26.83;;
4634;SDS011;2330;48.158;11.816;2024-02-28T03:28:18;29.30;;;26.50;;
4634;SDS011;2330;48.158;11.816;2024-02-28T03:30:45;28.50;;;25.77;;
4634;SDS011;2330;48.158;11.816;2024-02-28T03:33:12;31.33;;;28.03;;
4634;SDS011;2330;48.158;11.816;2024-02-28T03:35:39;30.00;;;27.17;;
4634;SDS011;2330;48.158;11.816;2024-02-28T03:38:05;31.00;;;28.10;;
4634;SDS011;2330;48.158;11.816;2024-02-28T03:40:32;28.70;;;26.00;;
4634;SDS011;2330;48.158;11.816;2024-02-28T03:42:59;28.37;;;25.57;;
4634;SDS011;2330;48.158;11.816;2024-02-28T03:45:29;28.23;;;25.60;;
4634;SDS011;2330;48.158;11.816;2024-02-28T03:47:56;30.90;;;27.70;;
4634;SDS011;2330;48.158;11.816;2024-02-28T03:50:23;29.30;;;26.50;;
4634;SDS011;2330;48.158;11.816;2024-02-28T03:52:50;29.10;;;26.30;;
4634;SDS011;2330;48.158;11.816;2024-02-28T03:55:17;31.23;;;28.33;;
4634;SDS011;2330;48.158;11.816;2024-02-28T03:57:46;30.20;;;27.30;;
4634;SDS011;2330;48.158;11.816;2024-02-28T04:00:14;29.03;;;26.33;;
4634;SDS011;2330;48.158;11.816;2024-02-28T04:02:41;31.87;;;28.80;;
4634;SDS011;2330;48.158;11.816;2024-02-28T04:05:08;30.50;;;27.30;;
4634;SDS011;2330;48.158;11.816;2024-02-28T04:07:35;29.00;;;26.20;;
4634;SDS011;2330;48.158;11.816;2024-02-28T04:10:02;30.97;;;27.97;;
4634;SDS011;2330;48.158;11.816;2024-02-28T04:12:31;29.60;;;26.70;;
4634;SDS011;2330;48.158;11.816;2024-02-28T04:14:59;29.70;;;26.80;;
4634;SDS011;2330;48.158;11.816;2024-02-28T04:17:26;28.27;;;25.57;;
4634;SDS011;2330;48.158;11.816;2024-02-28T04:19:53;28.73;;;26.03;;
4634;SDS011;2330;48.158;11.816;2024-02-28T04:22:19;29.90;;;27.13;;
4634;SDS011;2330;48.158;11.816;2024-02-28T04:24:46;31.87;;;28.80;;
4634;SDS011;2330;48.158;11.816;2024-02-28T04:27:13;29.80;;;27.00;;
4634;SDS011;2330;48.158;11.816;2024-02-28T04:29:40;30.47;;;27.40;;
4634;SDS011;2330;48.158;11.816;2024-02-28T04:32:07;31.23;;;28.17;;
4634;SDS011;2330;48.158;11.816;2024-02-28T04:34:33;32.07;;;29.07;;
4634;SDS011;2330;48.158;11.816;2024-02-28T04:37:02;30.07;;;27.30;;
4634;SDS011;2330;48.158;11.816;2024-02-28T04:39:29;31.70;;;28.40;;
4634;SDS011;2330;48.158;11.816;2024-02-28T04:41:56;32.50;;;29.33;;
4634;SDS011;2330;48.158;11.816;2024-02-28T04:44:22;31.70;;;28.67;;
4634;SDS011;2330;48.158;11.816;2024-02-28T04:46:49;30.90;;;27.90;;
4634;SDS011;2330;48.158;11.816;2024-02-28T04:49:16;32.67;;;29.20;;
4634;SDS011;2330;48.158;11.816;2024-02-28T04:51:43;32.67;;;29.50;;
4634;SDS011;2330;48.158;11.816;2024-02-28T04:54:10;35.10;;;31.40;;
4634;SDS011;2330;48.158;11.816;2024-02-28T04:56:40;33.40;;;30.00;;
4634;SDS011;2330;48.158;11.816;2024-02-28T04:59:10;33.77;;;30.53;;
4634;SDS011;2330;48.158;11.816;2024-02-28T05:01:39;33.90;;;30.67;;
4634;SDS011;2330;48.158;11.816;2024-02-28T05:04:08;34.13;;;30.63;;
4634;SDS011;2330;48.158;11.816;2024-02-28T05:06:35;33.53;;;30.30;;
4634;SDS011;2330;48.158;11.816;2024-02-28T05:09:05;30.40;;;27.33;;
4634;SDS011;2330;48.158;11.816;2024-02-28T05:11:33;32.90;;;29.50;;
4634;SDS011;2330;48.158;11.816;2024-02-28T05:13:59;31.07;;;28.10;;
4634;SDS011;2330;48.158;11.816;2024-02-28T05:16:26;31.50;;;28.60;;
4634;SDS011;2330;48.158;11.816;2024-02-28T05:18:53;32.20;;;29.00;;
4634;SDS011;2330;48.158;11.816;2024-02-28T05:21:20;31.97;;;28.77;;
4634;SDS011;2330;48.158;11.816;2024-02-28T05:23:47;32.50;;;29.20;;
4634;SDS011;2330;48.158;11.816;2024-02-28T05:26:14;30.53;;;27.50;;
4634;SDS011;2330;48.158;11.816;2024-02-28T05:28:41;32.20;;;29.10;;
4634;SDS011;2330;48.158;11.816;2024-02-28T05:31:21;33.80;;;30.60;;
4634;SDS011;2330;48.158;11.816;2024-02-28T05:33:52;32.13;;;28.80;;
4634;SDS011;2330;48.158;11.816;2024-02-28T05:36:21;30.60;;;27.53;;
4634;SDS011;2330;48.158;11.816;2024-02-28T05:38:48;28.17;;;25.43;;
4634;SDS011;2330;48.158;11.816;2024-02-28T05:41:16;28.70;;;25.90;;
4634;SDS011;2330;48.158;11.816;2024-02-28T05:43:44;30.77;;;27.87;;
4634;SDS011;2330;48.158;11.816;2024-02-28T05:46:12;28.60;;;25.90;;
4634;SDS011;2330;48.158;11.816;2024-02-28T05:48:43;30.70;;;27.70;;
4634;SDS011;2330;48.158;11.816;2024-02-28T05:51:11;32.10;;;28.30;;
4634;SDS011;2330;48.158;11.816;2024-02-28T05:53:39;30.40;;;27.50;;
4634;SDS011;2330;48.158;11.816;2024-02-28T05:56:07;31.33;;;28.17;;
4634;SDS011;2330;48.158;11.816;2024-02-28T05:58:46;27.60;;;24.83;;
4634;SDS011;2330;48.158;11.816;2024-02-28T06:01:17;32.50;;;29.07;;
4634;SDS011;2330;48.158;11.816;2024-02-28T06:03:45;35.63;;;32.10;;
4634;SDS011;2330;48.158;11.816;2024-02-28T06:06:13;34.73;;;30.97;;
4634;SDS011;2330;48.158;11.816;2024-02-28T06:08:40;34.30;;;30.90;;
4634;SDS011;2330;48.158;11.816;2024-02-28T06:11:07;31.73;;;28.63;;
4634;SDS011;2330;48.158;11.816;2024-02-28T06:13:35;34.73;;;31.23;;
4634;SDS011;2330;48.158;11.816;2024-02-28T06:16:02;34.87;;;31.47;;
4634;SDS011;2330;48.158;11.816;2024-02-28T06:18:29;33.20;;;29.90;;
4634;SDS011;2330;48.158;11.816;2024-02-28T06:20:59;34.13;;;30.70;;
4634;SDS011;2330;48.158;11.816;2024-02-28T06:23:27;37.73;;;33.63;;
4634;SDS011;2330;48.158;11.816;2024-02-28T06:25:56;34.37;;;30.87;;
4634;SDS011;2330;48.158;11.816;2024-02-28T06:28:23;32.27;;;29.17;;
4634;SDS011;2330;48.158;11.816;2024-02-28T06:30:50;34.53;;;31.13;;
4634;SDS011;2330;48.158;11.816;2024-02-28T06:33:18;34.40;;;30.90;;
4634;SDS011;2330;48.158;11.816;2024-02-28T06:35:45;34.00;;;30.57;;
4634;SDS011;2330;48.158;11.816;2024-02-28T06:38:12;35.37;;;31.77;;
4634;SDS011;2330;48.158;11.816;2024-02-28T06:40:39;36.37;;;32.63;;
4634;SDS011;2330;48.158;11.816;2024-02-28T06:43:06;37.47;;;33.53;;
4634;SDS011;2330;48.158;11.816;2024-02-28T06:45:33;36.03;;;32.13;;
4634;SDS011;2330;48.158;11.816;2024-02-28T06:48:00;35.77;;;32.10;;
4634;SDS011;2330;48.158;11.816;2024-02-28T06:50:27;37.50;;;33.60;;
4634;SDS011;2330;48.158;11.816;2024-02-28T06:52:53;36.10;;;32.23;;
4634;SDS011;2330;48.158;11.816;2024-02-28T06:55:20;38.00;;;33.07;;
4634;SDS011;2330;48.158;11.816;2024-02-28T06:57:47;37.40;;;33.00;;
4634;SDS011;2330;48.158;11.816;2024-02-28T07:00:14;39.83;;;35.50;;
4634;SDS011;2330;48.158;11.816;2024-02-28T07:02:42;43.93;;;36.63;;
4634;SDS011;2330;48.158;11.816;2024-02-28T07:05:10;43.87;;;37.83;;
4634;SDS011;2330;48.158;11.816;2024-02-28T07:07:37;48.50;;;40.03;;
4634;SDS011;2330;48.158;11.816;2024-02-28T07:10:04;45.97;;;39.07;;
4634;SDS011;2330;48.158;11.816;2024-02-28T07:12:31;43.13;;;36.33;;
4634;SDS011;2330;48.158;11.816;2024-02-28T07:14:58;47.30;;;38.50;;
4634;SDS011;2330;48.158;11.816;2024-02-28T07:17:25;49.57;;;41.10;;
4634;SDS011;2330;48.158;11.816;2024-02-28T07:19:54;47.03;;;39.10;;
4634;SDS011;2330;48.158;11.816;2024-02-28T07:22:21;46.20;;;40.13;;
4634;SDS011;2330;48.158;11.816;2024-02-28T07:24:48;46.20;;;39.17;;
4634;SDS011;2330;48.158;11.816;2024-02-28T07:27:15;43.47;;;37.03;;
4634;SDS011;2330;48.158;11.816;2024-02-28T07:29:42;42.97;;;36.10;;
4634;SDS011;2330;48.158;11.816;2024-02-28T07:32:10;42.80;;;35.90;;
4634;SDS011;2330;48.158;11.816;2024-02-28T07:34:37;40.77;;;36.10;;
4634;SDS011;2330;48.158;11.816;2024-02-28T07:37:05;38.83;;;34.63;;
4634;SDS011;2330;48.158;11.816;2024-02-28T07:39:31;48.30;;;39.07;;
4634;SDS011;2330;48.158;11.816;2024-02-28T07:41:58;42.77;;;36.30;;
4634;SDS011;2330;48.158;11.816;2024-02-28T07:44:26;46.83;;;37.70;;
4634;SDS011;2330;48.158;11.816;2024-02-28T07:46:57;43.67;;;37.70;;
4634;SDS011;2330;48.158;11.816;2024-02-28T07:49:24;42.00;;;36.77;;
4634;SDS011;2330;48.158;11.816;2024-02-28T07:51:54;46.53;;;38.87;;
4634;SDS011;2330;48.158;11.816;2024-02-28T07:54:22;45.20;;;39.13;;
4634;SDS011;2330;48.158;11.816;2024-02-28T07:56:49;45.57;;;39.17;;
4634;SDS011;2330;48.158;11.816;2024-02-28T07:59:16;54.03;;;43.17;;
4634;SDS011;2330;48.158;11.816;2024-02-28T08:01:44;53.13;;;42.60;;
4634;SDS011;2330;48.158;11.816;2024-02-28T08:04:12;54.17;;;42.47;;
4634;SDS011;2330;48.158;11.816;2024-02-28T08:06:39;53.70;;;42.57;;
4634;SDS011;2330;48.158;11.816;2024-02-28T08:09:07;53.63;;;42.27;;
4634;SDS011;2330;48.158;11.816;2024-02-28T08:11:38;51.20;;;41.40;;
4634;SDS011;2330;48.158;11.816;2024-02-28T08:14:05;50.00;;;40.70;;
4634;SDS011;2330;48.158;11.816;2024-02-28T08:16:32;51.43;;;40.57;;
4634;SDS011;2330;48.158;11.816;2024-02-28T08:18:59;52.63;;;41.67;;
4634;SDS011;2330;48.158;11.816;2024-02-28T08:21:26;52.83;;;40.70;;
4634;SDS011;2330;48.158;11.816;2024-02-28T08:23:54;55.80;;;41.63;;
4634;SDS011;2330;48.158;11.816;2024-02-28T08:26:21;49.40;;;39.97;;
4634;SDS011;2330;48.158;11.816;2024-02-28T08:28:49;55.27;;;42.00;;
4634;SDS011;2330;48.158;11.816;2024-02-28T08:31:16;52.10;;;41.13;;
4634;SDS011;2330;48.158;11.816;2024-02-28T08:33:42;47.77;;;41.00;;
4634;SDS011;2330;48.158;11.816;2024-02-28T08:36:09;51.77;;;40.57;;
4634;SDS011;2330;48.158;11.816;2024-02-28T08:38:36;54.33;;;42.80;;
4634;SDS011;2330;48.158;11.816;2024-02-28T08:41:05;45.10;;;38.10;;
4634;SDS011;2330;48.158;11.816;2024-02-28T08:43:37;44.70;;;38.70;;
4634;SDS011;2330;48.158;11.816;2024-02-28T08:46:04;43.33;;;37.97;;
4634;SDS011;2330;48.158;11.816;2024-02-28T08:48:32;46.20;;;39.50;;
4634;SDS011;2330;48.158;11.816;2024-02-28T08:50:59;46.07;;;41.07;;
4634;SDS011;2330;48.158;11.816;2024-02-28T08:53:26;45.43;;;38.80;;
4634;SDS011;2330;48.158;11.816;2024-02-28T08:55:53;43.40;;;38.67;;
4634;SDS011;2330;48.158;11.816;2024-02-28T08:58:19;45.00;;;37.97;;
4634;SDS011;2330;48.158;11.816;2024-02-28T09:00:46;53.23;;;41.03;;
4634;SDS011;2330;48.158;11.816;2024-02-28T09:03:13;46.00;;;40.23;;
4634;SDS011;2330;48.158;11.816;2024-02-28T09:05:40;45.10;;;39.87;;
4634;SDS011;2330;48.158;11.816;2024-02-28T09:08:07;46.40;;;38.90;;
4634;SDS011;2330;48.158;11.816;2024-02-28T09:10:38;47.73;;;41.53;;
4634;SDS011;2330;48.158;11.816;2024-02-28T09:13:04;46.70;;;40.20;;
4634;SDS011;2330;48.158;11.816;2024-02-28T09:15:33;46.23;;;41.27;;
4634;SDS011;2330;48.158;11.816;2024-02-28T09:18:01;49.60;;;40.40;;
4634;SDS011;2330;48.158;11.816;2024-02-28T09:20:28;49.83;;;40.50;;
4634;SDS011;2330;48.158;11.816;2024-02-28T09:22:55;47.97;;;40.97;;
4634;SDS011;2330;48.158;11.816;2024-02-28T09:25:21;47.90;;;40.30;;
4634;SDS011;2330;48.158;11.816;2024-02-28T09:27:52;44.83;;;39.93;;
4634;SDS011;2330;48.158;11.816;2024-02-28T09:30:19;50.73;;;41.83;;
4634;SDS011;2330;48.158;11.816;2024-02-28T09:32:46;44.80;;;38.70;;
4634;SDS011;2330;48.158;11.816;2024-02-28T09:35:15;48.37;;;41.27;;
4634;SDS011;2330;48.158;11.816;2024-02-28T09:37:41;45.60;;;40.27;;
4634;SDS011;2330;48.158;11.816;2024-02-28T09:40:09;50.23;;;40.57;;
4634;SDS011;2330;48.158;11.816;2024-02-28T09:42:37;43.77;;;39.07;;
4634;SDS011;2330;48.158;11.816;2024-02-28T09:45:04;43.63;;;38.93;;
4634;SDS011;2330;48.158;11.816;2024-02-28T09:47:36;42.50;;;35.87;;
4634;SDS011;2330;48.158;11.816;2024-02-28T09:50:03;43.03;;;37.57;;
4634;SDS011;2330;48.158;11.816;2024-02-28T09:52:30;41.10;;;36.53;;
4634;SDS011;2330;48.158;11.816;2024-02-28T09:54:57;42.40;;;37.80;;
4634;SDS011;2330;48.158;11.816;2024-02-28T09:57:24;41.53;;;37.00;;
4634;SDS011;2330;48.158;11.816;2024-02-28T09:59:58;50.87;;;39.37;;
4634;SDS011;2330;48.158;11.816;2024-02-28T10:02:27;45.80;;;38.20;;
4634;SDS011;2330;48.158;11.816;2024-02-28T10:04:55;46.57;;;39.20;;
4634;SDS011;2330;48.158;11.816;2024-02-28T10:07:23;47.53;;;42.40;;
4634;SDS011;2330;48.158;11.816;2024-02-28T10:09:50;42.40;;;38.00;;
4634;SDS011;2330;48.158;11.816;2024-02-28T10:12:17;45.83;;;40.83;;
4634;SDS011;2330;48.158;11.816;2024-02-28T10:14:45;48.03;;;41.00;;
4634;SDS011;2330;48.158;11.816;2024-02-28T10:17:15;43.87;;;39.13;;
4634;SDS011;2330;48.158;11.816;2024-02-28T10:19:42;41.00;;;36.57;;
4634;SDS011;2330;48.158;11.816;2024-02-28T10:22:08;43.80;;;38.67;;
4634;SDS011;2330;48.158;11.816;2024-02-28T10:24:35;45.57;;;40.90;;
4634;SDS011;2330;48.158;11.816;2024-02-28T10:27:04;45.37;;;40.43;;
4634;SDS011;2330;48.158;11.816;2024-02-28T10:29:31;43.20;;;38.50;;
4634;SDS011;2330;48.158;11.816;2024-02-28T10:31:59;42.93;;;38.33;;
4634;SDS011;2330;48.158;11.816;2024-02-28T10:34:26;41.90;;;37.60;;
4634;SDS011;2330;48.158;11.816;2024-02-28T10:36:54;38.83;;;34.77;;
4634;SDS011;2330;48.158;11.816;2024-02-28T10:39:21;44.30;;;39.50;;
4634;SDS011;2330;48.158;11.816;2024-02-28T10:41:48;43.10;;;38.87;;
4634;SDS011;2330;48.158;11.816;2024-02-28T10:44:18;42.17;;;37.17;;
4634;SDS011;2330;48.158;11.816;2024-02-28T10:46:51;42.20;;;37.80;;
4634;SDS011;2330;48.158;11.816;2024-02-28T10:49:18;40.03;;;35.83;;
4634;SDS011;2330;48.158;11.816;2024-02-28T10:51:48;37.93;;;34.03;;
4634;SDS011;2330;48.158;11.816;2024-02-28T10:54:18;40.90;;;36.43;;
4634;SDS011;2330;48.158;11.816;2024-02-28T10:56:48;42.10;;;37.67;;
4634;SDS011;2330;48.158;11.816;2024-02-28T10:59:15;37.67;;;33.80;;
4634;SDS011;2330;48.158;11.816;2024-02-28T11:01:43;37.10;;;33.27;;
4634;SDS011;2330;48.158;11.816;2024-02-28T11:04:11;38.30;;;34.50;;
4634;SDS011;2330;48.158;11.816;2024-02-28T11:06:53;37.37;;;33.37;;
4634;SDS011;2330;48.158;11.816;2024-02-28T11:09:23;36.20;;;31.43;;
4634;SDS011;2330;48.158;11.816;2024-02-28T11:11:52;35.67;;;32.07;;
4634;SDS011;2330;48.158;11.816;2024-02-28T11:14:20;36.77;;;33.27;;
4634;SDS011;2330;48.158;11.816;2024-02-28T11:16:59;34.07;;;30.63;;
4634;SDS011;2330;48.158;11.816;2024-02-28T11:19:29;34.23;;;30.73;;
4634;SDS011;2330;48.158;11.816;2024-02-28T11:21:59;33.03;;;29.73;;
4634;SDS011;2330;48.158;11.816;2024-02-28T11:24:31;36.67;;;32.93;;
4634;SDS011;2330;48.158;11.816;2024-02-28T11:27:00;37.10;;;33.40;;
4634;SDS011;2330;48.158;11.816;2024-02-28T11:29:29;35.07;;;31.40;;
4634;SDS011;2330;48.158;11.816;2024-02-28T11:31:56;40.07;;;36.10;;
4634;SDS011;2330;48.158;11.816;2024-02-28T11:34:23;38.43;;;34.50;;
4634;SDS011;2330;48.158;11.816;2024-02-28T11:36:50;38.70;;;34.27;;
4634;SDS011;2330;48.158;11.816;2024-02-28T11:39:17;39.93;;;35.90;;
4634;SDS011;2330;48.158;11.816;2024-02-28T11:41:46;37.27;;;33.37;;
4634;SDS011;2330;48.158;11.816;2024-02-28T11:44:13;36.53;;;32.90;;
4634;SDS011;2330;48.158;11.816;2024-02-28T11:46:45;34.77;;;31.30;;
4634;SDS011;2330;48.158;11.816;2024-02-28T11:49:12;35.67;;;32.37;;
4634;SDS011;2330;48.158;11.816;2024-02-28T11:51:40;36.30;;;32.60;;
4634;SDS011;2330;48.158;11.816;2024-02-28T11:54:09;36.20;;;32.67;;
4634;SDS011;2330;48.158;11.816;2024-02-28T11:56:39;33.80;;;30.50;;
4634;SDS011;2330;48.158;11.816;2024-02-28T11:59:08;34.83;;;31.37;;
4634;SDS011;2330;48.158;11.816;2024-02-28T12:01:35;34.97;;;31.53;;
4634;SDS011;2330;48.158;11.816;2024-02-28T12:04:04;34.00;;;30.50;;
4634;SDS011;2330;48.158;11.816;2024-02-28T12:06:32;32.23;;;29.03;;
4634;SDS011;2330;48.158;11.816;2024-02-28T12:09:04;32.70;;;29.60;;
4634;SDS011;2330;48.158;11.816;2024-02-28T12:11:32;32.50;;;29.30;;
4634;SDS011;2330;48.158;11.816;2024-02-28T12:13:59;32.37;;;29.37;;
4634;SDS011;2330;48.158;11.816;2024-02-28T12:16:29;33.60;;;30.30;;
4634;SDS011;2330;48.158;11.816;2024-02-28T12:18:56;33.20;;;30.10;;
4634;SDS011;2330;48.158;11.816;2024-02-28T12:21:23;34.40;;;31.20;;
4634;SDS011;2330;48.158;11.816;2024-02-28T12:23:50;35.83;;;32.40;;
4634;SDS011;2330;48.158;11.816;2024-02-28T12:26:17;36.20;;;32.60;;
4634;SDS011;2330;48.158;11.816;2024-02-28T12:28:45;32.50;;;29.43;;
4634;SDS011;2330;48.158;11.816;2024-02-28T12:31:12;33.97;;;30.80;;
4634;SDS011;2330;48.158;11.816;2024-02-28T12:33:39;35.80;;;32.40;;
4634;SDS011;2330;48.158;11.816;2024-02-28T12:36:07;36.30;;;32.80;;
4634;SDS011;2330;48.158;11.816;2024-02-28T12:38:34;36.00;;;32.50;;
4634;SDS011;2330;48.158;11.816;2024-02-28T12:41:00;32.73;;;29.40;;
4634;SDS011;2330;48.158;11.816;2024-02-28T12:43:29;33.43;;;30.13;;
4634;SDS011;2330;48.158;11.816;2024-02-28T12:45:57;30.97;;;27.87;;
4634;SDS011;2330;48.158;11.816;2024-02-28T12:48:23;33.67;;;30.43;;
4634;SDS011;2330;48.158;11.816;2024-02-28T12:50:50;34.00;;;30.60;;
4634;SDS011;2330;48.158;11.816;2024-02-28T12:53:17;33.53;;;30.27;;
4634;SDS011;2330;48.158;11.816;2024-02-28T12:55:44;34.00;;;30.57;;
4634;SDS011;2330;48.158;11.816;2024-02-28T12:58:11;35.30;;;31.90;;
4634;SDS011;2330;48.158;11.816;2024-02-28T13:00:38;33.50;;;30.10;;
4634;SDS011;2330;48.158;11.816;2024-02-28T13:03:05;32.00;;;28.87;;
4634;SDS011;2330;48.158;11.816;2024-02-28T13:05:32;34.60;;;31.00;;
4634;SDS011;2330;48.158;11.816;2024-02-28T13:07:59;33.97;;;30.70;;
4634;SDS011;2330;48.158;11.816;2024-02-28T13:10:26;32.40;;;29.10;;
4634;SDS011;2330;48.158;11.816;2024-02-28T13:12:53;30.47;;;27.50;;
4634;SDS011;2330;48.158;11.816;2024-02-28T13:15:19;29.20;;;26.40;;
4634;SDS011;2330;48.158;11.816;2024-02-28T13:17:46;29.83;;;26.90;;
4634;SDS011;2330;48.158;11.816;2024-02-28T13:20:16;31.40;;;28.27;;
4634;SDS011;2330;48.158;11.816;2024-02-28T13:22:43;31.90;;;28.57;;
4634;SDS011;2330;48.158;11.816;2024-02-28T13:25:11;34.63;;;30.93;;
4634;SDS011;2330;48.158;11.816;2024-02-28T13:27:40;33.90;;;30.30;;
4634;SDS011;2330;48.158;11.816;2024-02-28T13:30:07;34.20;;;30.40;;
4634;SDS011;2330;48.158;11.816;2024-02-28T13:32:34;35.10;;;31.50;;
4634;SDS011;2330;48.158;11.816;2024-02-28T13:35:01;31.67;;;28.47;;
4634;SDS011;2330;48.158;11.816;2024-02-28T13:37:28;34.73;;;31.13;;
4634;SDS011;2330;48.158;11.816;2024-02-28T13:39:55;31.30;;;28.00;;
4634;SDS011;2330;48.158;11.816;2024-02-28T13:42:22;31.97;;;28.73;;
4634;SDS011;2330;48.158;11.816;2024-02-28T13:44:50;34.97;;;31.33;;
4634;SDS011;2330;48.158;11.816;2024-02-28T13:47:18;33.57;;;30.23;;
4634;SDS011;2330;48.158;11.816;2024-02-28T13:49:44;31.43;;;28.33;;
4634;SDS011;2330;48.158;11.816;2024-02-28T13:52:11;31.97;;;28.80;;
4634;SDS011;2330;48.158;11.816;2024-02-28T13:54:38;32.30;;;28.90;;
4634;SDS011;2330;48.158;11.816;2024-02-28T13:57:05;32.43;;;29.10;;
4634;SDS011;2330;48.158;11.816;2024-02-28T13:59:35;31.77;;;28.50;;
4634;SDS011;2330;48.158;11.816;2024-02-28T14:02:02;32.77;;;29.53;;
4634;SDS011;2330;48.158;11.816;2024-02-28T14:04:29;30.97;;;28.03;;
4634;SDS011;2330;48.158;11.816;2024-02-28T14:06:56;31.53;;;28.43;;
4634;SDS011;2330;48.158;11.816;2024-02-28T14:09:23;33.80;;;27.67;;
4634;SDS011;2330;48.158;11.816;2024-02-28T14:11:49;30.77;;;27.80;;
4634;SDS011;2330;48.158;11.816;2024-02-28T14:14:16;31.53;;;28.37;;
4634;SDS011;2330;48.158;11.816;2024-02-28T14:16:43;29.07;;;26.23;;
4634;SDS011;2330;48.158;11.816;2024-02-28T14:19:10;31.67;;;28.37;;
4634;SDS011;2330;48.158;11.816;2024-02-28T14:21:37;31.30;;;28.20;;
4634;SDS011;2330;48.158;11.816;2024-02-28T14:24:04;31.87;;;28.67;;
4634;SDS011;2330;48.158;11.816;2024-02-28T14:26:32;31.30;;;28.10;;
4634;SDS011;2330;48.158;11.816;2024-02-28T14:28:59;31.30;;;28.03;;
4634;SDS011;2330;48.158;11.816;2024-02-28T14:31:25;32.77;;;29.47;;
4634;SDS011;2330;48.158;11.816;2024-02-28T14:33:53;30.67;;;27.70;;
4634;SDS011;2330;48.158;11.816;2024-02-28T14:36:21;31.97;;;28.77;;